sensor_id;sensor_type;location;lat;lon;timestamp;P1;durP1;ratioP1;P2;durP2;ratioP2
2123;SDS011;1068;52.460;13.528;2023-03-11T00:00:23;9.48;;;8.50;;
2123;SDS011;1068;52.460;13.528;2023-03-11T00:02:51;11.48;;;9.55;;
2123;SDS011;1068;52.460;13.528;2023-03-11T00:05:19;12.07;;;9.70;;
2123;SDS011;1068;52.460;13.528;2023-03-11T00:07:46;10.30;;;8.25;;
2123;SDS011;1068;52.460;13.528;2023-03-11T00:10:15;9.05;;;8.15;;
2123;SDS011;1068;52.460;13.528;2023-03-11T00:12:42;8.80;;;7.70;;
2123;SDS011;1068;52.460;13.528;2023-03-11T00:15:10;8.55;;;7.32;;
2123;SDS011;1068;52.460;13.528;2023-03-11T00:17:37;10.63;;;8.18;;
2123;SDS011;1068;52.460;13.528;2023-03-11T00:20:05;8.23;;;7.40;;
2123;SDS011;1068;52.460;13.528;2023-03-11T00:22:33;9.00;;;8.05;;
2123;SDS011;1068;52.460;13.528;2023-03-11T00:25:00;10.90;;;8.50;;
2123;SDS011;1068;52.460;13.528;2023-03-11T00:27:28;11.70;;;9.25;;
2123;SDS011;1068;52.460;13.528;2023-03-11T00:29:55;10.63;;;8.55;;
2123;SDS011;1068;52.460;13.528;2023-03-11T00:32:22;10.35;;;8.30;;
2123;SDS011;1068;52.460;13.528;2023-03-11T00:34:49;13.02;;;8.73;;
2123;SDS011;1068;52.460;13.528;2023-03-11T00:37:16;10.57;;;8.73;;
2123;SDS011;1068;52.460;13.528;2023-03-11T00:39:43;11.30;;;9.30;;
2123;SDS011;1068;52.460;13.528;2023-03-11T00:42:10;10.52;;;8.38;;
2123;SDS011;1068;52.460;13.528;2023-03-11T00:44:38;11.65;;;9.30;;
2123;SDS011;1068;52.460;13.528;2023-03-11T00:47:05;9.52;;;8.45;;
2123;SDS011;1068;52.460;13.528;2023-03-11T00:49:32;10.40;;;8.88;;
2123;SDS011;1068;52.460;13.528;2023-03-11T00:52:00;9.00;;;7.95;;
2123;SDS011;1068;52.460;13.528;2023-03-11T00:54:27;12.15;;;10.10;;
2123;SDS011;1068;52.460;13.528;2023-03-11T00:56:54;10.80;;;8.70;;
2123;SDS011;1068;52.460;13.528;2023-03-11T00:59:21;10.60;;;9.10;;
2123;SDS011;1068;52.460;13.528;2023-03-11T01:01:50;11.02;;;8.75;;
2123;SDS011;1068;52.460;13.528;2023-03-11T01:04:17;11.30;;;9.38;;
2123;SDS011;1068;52.460;13.528;2023-03-11T01:06:44;12.20;;;9.63;;
2123;SDS011;1068;52.460;13.528;2023-03-11T01:09:11;10.32;;;9.15;;
2123;SDS011;1068;52.460;13.528;2023-03-11T01:11:38;11.40;;;9.55;;
2123;SDS011;1068;52.460;13.528;2023-03-11T01:14:05;9.82;;;8.65;;
2123;SDS011;1068;52.460;13.528;2023-03-11T01:16:32;9.80;;;8.68;;
2123;SDS011;1068;52.460;13.528;2023-03-11T01:19:00;12.35;;;9.10;;
2123;SDS011;1068;52.460;13.528;2023-03-11T01:21:27;10.23;;;8.80;;
2123;SDS011;1068;52.460;13.528;2023-03-11T01:23:54;9.07;;;7.47;;
2123;SDS011;1068;52.460;13.528;2023-03-11T01:26:21;8.95;;;8.00;;
2123;SDS011;1068;52.460;13.528;2023-03-11T01:28:48;8.13;;;7.32;;
2123;SDS011;1068;52.460;13.528;2023-03-11T01:31:15;10.02;;;7.50;;
2123;SDS011;1068;52.460;13.528;2023-03-11T01:33:42;8.43;;;7.55;;
2123;SDS011;1068;52.460;13.528;2023-03-11T01:36:10;9.00;;;7.63;;
2123;SDS011;1068;52.460;13.528;2023-03-11T01:38:37;8.65;;;7.72;;
2123;SDS011;1068;52.460;13.528;2023-03-11T01:41:04;10.07;;;8.35;;
2123;SDS011;1068;52.460;13.528;2023-03-11T01:43:36;8.68;;;7.60;;
2123;SDS011;1068;52.460;13.528;2023-03-11T01:46:06;10.82;;;9.52;;
2123;SDS011;1068;52.460;13.528;2023-03-11T01:48:34;11.20;;;9.23;;
2123;SDS011;1068;52.460;13.528;2023-03-11T01:51:03;9.80;;;8.88;;
2123;SDS011;1068;52.460;13.528;2023-03-11T01:53:31;11.38;;;9.80;;
2123;SDS011;1068;52.460;13.528;2023-03-11T01:55:58;10.90;;;9.90;;
2123;SDS011;1068;52.460;13.528;2023-03-11T01:58:28;10.63;;;9.45;;
2123;SDS011;1068;52.460;13.528;2023-03-11T02:00:56;12.48;;;10.85;;
2123;SDS011;1068;52.460;13.528;2023-03-11T02:03:26;10.82;;;9.70;;
2123;SDS011;1068;52.460;13.528;2023-03-11T02:05:54;10.73;;;9.40;;
2123;SDS011;1068;52.460;13.528;2023-03-11T02:08:22;12.07;;;10.70;;
2123;SDS011;1068;52.460;13.528;2023-03-11T02:10:51;10.50;;;9.40;;
2123;SDS011;1068;52.460;13.528;2023-03-11T02:13:18;9.75;;;8.75;;
2123;SDS011;1068;52.460;13.528;2023-03-11T02:15:45;9.65;;;8.38;;
2123;SDS011;1068;52.460;13.528;2023-03-11T02:18:13;9.35;;;8.45;;
2123;SDS011;1068;52.460;13.528;2023-03-11T02:20:43;8.90;;;8.00;;
2123;SDS011;1068;52.460;13.528;2023-03-11T02:23:12;6.95;;;6.25;;
2123;SDS011;1068;52.460;13.528;2023-03-11T02:25:40;6.40;;;5.80;;
2123;SDS011;1068;52.460;13.528;2023-03-11T02:28:12;6.03;;;5.53;;
2123;SDS011;1068;52.460;13.528;2023-03-11T02:30:40;5.57;;;4.72;;
2123;SDS011;1068;52.460;13.528;2023-03-11T02:33:08;5.38;;;4.97;;
2123;SDS011;1068;52.460;13.528;2023-03-11T02:35:35;5.70;;;5.10;;
2123;SDS011;1068;52.460;13.528;2023-03-11T02:38:02;4.25;;;3.85;;
2123;SDS011;1068;52.460;13.528;2023-03-11T02:40:32;4.38;;;3.97;;
2123;SDS011;1068;52.460;13.528;2023-03-11T02:43:01;3.20;;;2.95;;
2123;SDS011;1068;52.460;13.528;2023-03-11T02:45:30;2.50;;;2.30;;
2123;SDS011;1068;52.460;13.528;2023-03-11T02:47:57;2.25;;;2.08;;
2123;SDS011;1068;52.460;13.528;2023-03-11T02:50:25;2.40;;;2.20;;
2123;SDS011;1068;52.460;13.528;2023-03-11T02:52:54;2.20;;;2.10;;
2123;SDS011;1068;52.460;13.528;2023-03-11T02:55:21;1.80;;;1.70;;
2123;SDS011;1068;52.460;13.528;2023-03-11T02:57:48;1.70;;;1.60;;
2123;SDS011;1068;52.460;13.528;2023-03-11T03:00:15;1.52;;;1.42;;
2123;SDS011;1068;52.460;13.528;2023-03-11T03:02:45;1.55;;;1.45;;
2123;SDS011;1068;52.460;13.528;2023-03-11T03:05:15;1.40;;;1.30;;
2123;SDS011;1068;52.460;13.528;2023-03-11T03:07:44;1.67;;;1.58;;
2123;SDS011;1068;52.460;13.528;2023-03-11T03:10:11;2.15;;;1.80;;
2123;SDS011;1068;52.460;13.528;2023-03-11T03:12:39;1.40;;;1.30;;
2123;SDS011;1068;52.460;13.528;2023-03-11T03:15:07;1.63;;;1.52;;
2123;SDS011;1068;52.460;13.528;2023-03-11T03:17:34;1.98;;;1.88;;
2123;SDS011;1068;52.460;13.528;2023-03-11T03:20:03;1.70;;;1.60;;
2123;SDS011;1068;52.460;13.528;2023-03-11T03:22:35;1.75;;;1.50;;
2123;SDS011;1068;52.460;13.528;2023-03-11T03:25:02;1.75;;;1.65;;
2123;SDS011;1068;52.460;13.528;2023-03-11T03:27:29;1.80;;;1.70;;
2123;SDS011;1068;52.460;13.528;2023-03-11T03:29:56;1.70;;;1.60;;
2123;SDS011;1068;52.460;13.528;2023-03-11T03:32:23;1.77;;;1.67;;
2123;SDS011;1068;52.460;13.528;2023-03-11T03:34:50;1.45;;;1.35;;
2123;SDS011;1068;52.460;13.528;2023-03-11T03:37:23;1.50;;;1.40;;
2123;SDS011;1068;52.460;13.528;2023-03-11T03:39:50;1.40;;;1.30;;
2123;SDS011;1068;52.460;13.528;2023-03-11T03:42:17;1.70;;;1.60;;
2123;SDS011;1068;52.460;13.528;2023-03-11T03:44:44;1.83;;;1.70;;
2123;SDS011;1068;52.460;13.528;2023-03-11T03:47:11;1.85;;;1.75;;
2123;SDS011;1068;52.460;13.528;2023-03-11T03:49:38;1.90;;;1.80;;
2123;SDS011;1068;52.460;13.528;2023-03-11T03:52:05;2.10;;;1.90;;
2123;SDS011;1068;52.460;13.528;2023-03-11T03:54:33;1.90;;;1.80;;
2123;SDS011;1068;52.460;13.528;2023-03-11T03:57:00;2.13;;;1.92;;
2123;SDS011;1068;52.460;13.528;2023-03-11T03:59:28;1.80;;;1.70;;
2123;SDS011;1068;52.460;13.528;2023-03-11T04:01:55;1.70;;;1.60;;
2123;SDS011;1068;52.460;13.528;2023-03-11T04:04:22;1.85;;;1.75;;
2123;SDS011;1068;52.460;13.528;2023-03-11T04:06:49;2.00;;;1.90;;
2123;SDS011;1068;52.460;13.528;2023-03-11T04:09:17;2.15;;;2.00;;
2123;SDS011;1068;52.460;13.528;2023-03-11T04:11:45;2.20;;;2.10;;
2123;SDS011;1068;52.460;13.528;2023-03-11T04:14:12;2.42;;;2.25;;
2123;SDS011;1068;52.460;13.528;2023-03-11T04:16:39;2.47;;;2.30;;
2123;SDS011;1068;52.460;13.528;2023-03-11T04:19:06;2.55;;;2.30;;
2123;SDS011;1068;52.460;13.528;2023-03-11T04:21:33;2.58;;;2.38;;
2123;SDS011;1068;52.460;13.528;2023-03-11T04:24:00;2.03;;;1.92;;
2123;SDS011;1068;52.460;13.528;2023-03-11T04:26:28;2.80;;;2.55;;
2123;SDS011;1068;52.460;13.528;2023-03-11T04:28:56;2.58;;;2.38;;
2123;SDS011;1068;52.460;13.528;2023-03-11T04:31:23;2.53;;;2.33;;
2123;SDS011;1068;52.460;13.528;2023-03-11T04:33:50;2.55;;;2.45;;
2123;SDS011;1068;52.460;13.528;2023-03-11T04:36:18;2.60;;;2.40;;
2123;SDS011;1068;52.460;13.528;2023-03-11T04:38:45;3.33;;;3.00;;
2123;SDS011;1068;52.460;13.528;2023-03-11T04:41:12;2.90;;;2.70;;
2123;SDS011;1068;52.460;13.528;2023-03-11T04:43:39;3.50;;;3.20;;
2123;SDS011;1068;52.460;13.528;2023-03-11T04:46:08;3.60;;;3.30;;
2123;SDS011;1068;52.460;13.528;2023-03-11T04:48:35;3.15;;;2.95;;
2123;SDS011;1068;52.460;13.528;2023-03-11T04:51:02;3.78;;;3.13;;
2123;SDS011;1068;52.460;13.528;2023-03-11T04:53:29;3.75;;;3.45;;
2123;SDS011;1068;52.460;13.528;2023-03-11T04:55:56;3.55;;;3.25;;
2123;SDS011;1068;52.460;13.528;2023-03-11T04:58:23;3.22;;;2.95;;
2123;SDS011;1068;52.460;13.528;2023-03-11T05:00:50;3.80;;;3.28;;
2123;SDS011;1068;52.460;13.528;2023-03-11T05:03:19;2.97;;;2.78;;
2123;SDS011;1068;52.460;13.528;2023-03-11T05:05:46;2.75;;;2.55;;
2123;SDS011;1068;52.460;13.528;2023-03-11T05:08:13;3.35;;;3.05;;
2123;SDS011;1068;52.460;13.528;2023-03-11T05:10:40;3.47;;;3.17;;
2123;SDS011;1068;52.460;13.528;2023-03-11T05:13:08;3.03;;;2.83;;
2123;SDS011;1068;52.460;13.528;2023-03-11T05:15:35;2.50;;;2.38;;
2123;SDS011;1068;52.460;13.528;2023-03-11T05:18:03;2.92;;;2.70;;
2123;SDS011;1068;52.460;13.528;2023-03-11T05:20:31;2.80;;;2.60;;
2123;SDS011;1068;52.460;13.528;2023-03-11T05:22:58;3.30;;;2.20;;
2123;SDS011;1068;52.460;13.528;2023-03-11T05:25:25;2.50;;;2.30;;
2123;SDS011;1068;52.460;13.528;2023-03-11T05:27:52;2.85;;;2.65;;
2123;SDS011;1068;52.460;13.528;2023-03-11T05:30:19;2.88;;;2.67;;
2123;SDS011;1068;52.460;13.528;2023-03-11T05:32:47;2.30;;;2.20;;
2123;SDS011;1068;52.460;13.528;2023-03-11T05:35:14;3.55;;;2.88;;
2123;SDS011;1068;52.460;13.528;2023-03-11T05:37:43;2.55;;;2.40;;
2123;SDS011;1068;52.460;13.528;2023-03-11T05:40:13;2.03;;;1.83;;
2123;SDS011;1068;52.460;13.528;2023-03-11T05:42:40;2.80;;;2.60;;
2123;SDS011;1068;52.460;13.528;2023-03-11T05:45:08;2.85;;;2.65;;
2123;SDS011;1068;52.460;13.528;2023-03-11T05:47:35;3.85;;;2.15;;
2123;SDS011;1068;52.460;13.528;2023-03-11T05:50:02;2.60;;;2.40;;
2123;SDS011;1068;52.460;13.528;2023-03-11T05:52:30;3.10;;;2.80;;
2123;SDS011;1068;52.460;13.528;2023-03-11T05:54:59;2.90;;;2.70;;
2123;SDS011;1068;52.460;13.528;2023-03-11T05:57:26;2.90;;;2.70;;
2123;SDS011;1068;52.460;13.528;2023-03-11T05:59:53;3.33;;;3.08;;
2123;SDS011;1068;52.460;13.528;2023-03-11T06:02:20;3.88;;;3.15;;
2123;SDS011;1068;52.460;13.528;2023-03-11T06:04:48;2.65;;;2.45;;
2123;SDS011;1068;52.460;13.528;2023-03-11T06:07:15;2.75;;;2.55;;
2123;SDS011;1068;52.460;13.528;2023-03-11T06:09:42;3.00;;;2.80;;
2123;SDS011;1068;52.460;13.528;2023-03-11T06:12:11;2.55;;;2.35;;
2123;SDS011;1068;52.460;13.528;2023-03-11T06:14:38;2.22;;;2.03;;
2123;SDS011;1068;52.460;13.528;2023-03-11T06:17:05;3.70;;;3.05;;
2123;SDS011;1068;52.460;13.528;2023-03-11T06:19:32;3.15;;;2.95;;
2123;SDS011;1068;52.460;13.528;2023-03-11T06:21:59;2.65;;;2.45;;
2123;SDS011;1068;52.460;13.528;2023-03-11T06:24:26;3.17;;;2.92;;
2123;SDS011;1068;52.460;13.528;2023-03-11T06:26:53;3.35;;;2.60;;
2123;SDS011;1068;52.460;13.528;2023-03-11T06:29:21;3.00;;;2.63;;
2123;SDS011;1068;52.460;13.528;2023-03-11T06:31:50;2.75;;;2.53;;
2123;SDS011;1068;52.460;13.528;2023-03-11T06:34:17;3.25;;;2.83;;
2123;SDS011;1068;52.460;13.528;2023-03-11T06:36:44;3.40;;;3.00;;
2123;SDS011;1068;52.460;13.528;2023-03-11T06:39:12;2.75;;;2.55;;
2123;SDS011;1068;52.460;13.528;2023-03-11T06:41:39;2.97;;;2.78;;
2123;SDS011;1068;52.460;13.528;2023-03-11T06:44:07;2.85;;;2.65;;
2123;SDS011;1068;52.460;13.528;2023-03-11T06:46:36;3.80;;;3.25;;
2123;SDS011;1068;52.460;13.528;2023-03-11T06:49:03;2.90;;;2.70;;
2123;SDS011;1068;52.460;13.528;2023-03-11T06:51:30;2.55;;;2.40;;
2123;SDS011;1068;52.460;13.528;2023-03-11T06:53:57;3.00;;;2.70;;
2123;SDS011;1068;52.460;13.528;2023-03-11T06:56:24;2.85;;;2.65;;
2123;SDS011;1068;52.460;13.528;2023-03-11T06:58:52;2.00;;;1.90;;
2123;SDS011;1068;52.460;13.528;2023-03-11T07:01:20;2.50;;;2.10;;
2123;SDS011;1068;52.460;13.528;2023-03-11T07:03:48;2.40;;;2.20;;
2123;SDS011;1068;52.460;13.528;2023-03-11T07:06:17;2.33;;;2.03;;
2123;SDS011;1068;52.460;13.528;2023-03-11T07:08:44;1.85;;;1.75;;
2123;SDS011;1068;52.460;13.528;2023-03-11T07:11:12;2.40;;;2.20;;
2123;SDS011;1068;52.460;13.528;2023-03-11T07:13:40;2.50;;;2.30;;
2123;SDS011;1068;52.460;13.528;2023-03-11T07:16:08;2.80;;;2.60;;
2123;SDS011;1068;52.460;13.528;2023-03-11T07:18:37;3.08;;;2.88;;
2123;SDS011;1068;52.460;13.528;2023-03-11T07:21:06;4.00;;;3.70;;
2123;SDS011;1068;52.460;13.528;2023-03-11T07:23:34;3.75;;;3.20;;
2123;SDS011;1068;52.460;13.528;2023-03-11T07:26:01;14.35;;;12.80;;
2123;SDS011;1068;52.460;13.528;2023-03-11T07:28:29;4.82;;;4.32;;
2123;SDS011;1068;52.460;13.528;2023-03-11T07:30:56;4.22;;;3.83;;
2123;SDS011;1068;52.460;13.528;2023-03-11T07:33:23;6.10;;;4.18;;
2123;SDS011;1068;52.460;13.528;2023-03-11T07:35:50;4.20;;;3.90;;
2123;SDS011;1068;52.460;13.528;2023-03-11T07:38:19;5.03;;;4.63;;
2123;SDS011;1068;52.460;13.528;2023-03-11T07:40:46;3.97;;;3.65;;
2123;SDS011;1068;52.460;13.528;2023-03-11T07:43:13;3.70;;;3.40;;
2123;SDS011;1068;52.460;13.528;2023-03-11T07:45:40;4.10;;;3.70;;
2123;SDS011;1068;52.460;13.528;2023-03-11T07:48:07;4.72;;;4.32;;
2123;SDS011;1068;52.460;13.528;2023-03-11T07:50:34;3.70;;;3.30;;
2123;SDS011;1068;52.460;13.528;2023-03-11T07:53:01;4.40;;;4.00;;
2123;SDS011;1068;52.460;13.528;2023-03-11T07:55:30;3.65;;;3.40;;
2123;SDS011;1068;52.460;13.528;2023-03-11T07:57:57;4.57;;;4.18;;
2123;SDS011;1068;52.460;13.528;2023-03-11T08:00:24;5.57;;;3.65;;
2123;SDS011;1068;52.460;13.528;2023-03-11T08:02:51;4.38;;;4.07;;
2123;SDS011;1068;52.460;13.528;2023-03-11T08:05:18;4.88;;;4.38;;
2123;SDS011;1068;52.460;13.528;2023-03-11T08:07:45;4.28;;;3.95;;
2123;SDS011;1068;52.460;13.528;2023-03-11T08:10:12;3.47;;;3.17;;
2123;SDS011;1068;52.460;13.528;2023-03-11T08:12:40;4.55;;;4.20;;
2123;SDS011;1068;52.460;13.528;2023-03-11T08:15:08;4.45;;;4.05;;
2123;SDS011;1068;52.460;13.528;2023-03-11T08:17:35;6.47;;;4.43;;
2123;SDS011;1068;52.460;13.528;2023-03-11T08:20:02;5.28;;;4.75;;
2123;SDS011;1068;52.460;13.528;2023-03-11T08:22:32;3.47;;;3.17;;
2123;SDS011;1068;52.460;13.528;2023-03-11T08:24:59;4.40;;;4.00;;
2123;SDS011;1068;52.460;13.528;2023-03-11T08:27:26;4.20;;;3.80;;
2123;SDS011;1068;52.460;13.528;2023-03-11T08:29:55;4.93;;;4.45;;
2123;SDS011;1068;52.460;13.528;2023-03-11T08:32:22;5.18;;;4.40;;
2123;SDS011;1068;52.460;13.528;2023-03-11T08:34:49;5.25;;;4.00;;
2123;SDS011;1068;52.460;13.528;2023-03-11T08:37:16;5.55;;;3.80;;
2123;SDS011;1068;52.460;13.528;2023-03-11T08:39:42;5.60;;;3.85;;
2123;SDS011;1068;52.460;13.528;2023-03-11T08:42:09;5.32;;;4.13;;
2123;SDS011;1068;52.460;13.528;2023-03-11T08:44:36;3.70;;;3.42;;
2123;SDS011;1068;52.460;13.528;2023-03-11T08:47:05;5.95;;;4.28;;
2123;SDS011;1068;52.460;13.528;2023-03-11T08:49:32;5.40;;;3.97;;
2123;SDS011;1068;52.460;13.528;2023-03-11T08:52:00;3.95;;;3.65;;
2123;SDS011;1068;52.460;13.528;2023-03-11T08:54:27;4.60;;;4.30;;
2123;SDS011;1068;52.460;13.528;2023-03-11T08:56:54;5.40;;;4.05;;
2123;SDS011;1068;52.460;13.528;2023-03-11T08:59:22;4.32;;;3.72;;
2123;SDS011;1068;52.460;13.528;2023-03-11T09:01:49;4.13;;;3.83;;
2123;SDS011;1068;52.460;13.528;2023-03-11T09:04:17;4.40;;;4.03;;
2123;SDS011;1068;52.460;13.528;2023-03-11T09:06:45;5.50;;;3.80;;
2123;SDS011;1068;52.460;13.528;2023-03-11T09:09:13;3.90;;;3.60;;
2123;SDS011;1068;52.460;13.528;2023-03-11T09:11:42;4.13;;;3.72;;
2123;SDS011;1068;52.460;13.528;2023-03-11T09:14:09;5.57;;;3.85;;
2123;SDS011;1068;52.460;13.528;2023-03-11T09:16:36;4.20;;;3.90;;
2123;SDS011;1068;52.460;13.528;2023-03-11T09:19:03;6.03;;;3.97;;
2123;SDS011;1068;52.460;13.528;2023-03-11T09:21:32;3.97;;;3.67;;
2123;SDS011;1068;52.460;13.528;2023-03-11T09:24:00;5.55;;;4.00;;
2123;SDS011;1068;52.460;13.528;2023-03-11T09:26:28;5.60;;;3.97;;
2123;SDS011;1068;52.460;13.528;2023-03-11T09:28:55;4.20;;;3.38;;
2123;SDS011;1068;52.460;13.528;2023-03-11T09:31:22;4.57;;;4.18;;
2123;SDS011;1068;52.460;13.528;2023-03-11T09:33:50;5.28;;;3.92;;
2123;SDS011;1068;52.460;13.528;2023-03-11T09:36:20;3.50;;;3.20;;
2123;SDS011;1068;52.460;13.528;2023-03-11T09:38:48;4.28;;;3.95;;
2123;SDS011;1068;52.460;13.528;2023-03-11T09:41:21;4.45;;;3.40;;
2123;SDS011;1068;52.460;13.528;2023-03-11T09:43:54;5.40;;;3.60;;
2123;SDS011;1068;52.460;13.528;2023-03-11T09:46:35;3.90;;;3.70;;
2123;SDS011;1068;52.460;13.528;2023-03-11T09:49:07;4.70;;;3.55;;
2123;SDS011;1068;52.460;13.528;2023-03-11T09:51:37;5.63;;;3.80;;
2123;SDS011;1068;52.460;13.528;2023-03-11T09:54:09;4.05;;;3.60;;
2123;SDS011;1068;52.460;13.528;2023-03-11T09:56:37;4.20;;;3.80;;
2123;SDS011;1068;52.460;13.528;2023-03-11T09:59:05;4.65;;;3.67;;
2123;SDS011;1068;52.460;13.528;2023-03-11T10:01:34;4.22;;;3.65;;
2123;SDS011;1068;52.460;13.528;2023-03-11T10:04:03;4.78;;;3.13;;
2123;SDS011;1068;52.460;13.528;2023-03-11T10:06:32;5.50;;;3.70;;
2123;SDS011;1068;52.460;13.528;2023-03-11T10:09:02;5.30;;;3.70;;
2123;SDS011;1068;52.460;13.528;2023-03-11T10:11:36;8.13;;;4.40;;
2123;SDS011;1068;52.460;13.528;2023-03-11T10:14:25;4.53;;;4.13;;
2123;SDS011;1068;52.460;13.528;2023-03-11T10:16:55;4.68;;;4.00;;
2123;SDS011;1068;52.460;13.528;2023-03-11T10:19:28;4.50;;;4.20;;
2123;SDS011;1068;52.460;13.528;2023-03-11T10:22:00;4.03;;;3.73;;
2123;SDS011;1068;52.460;13.528;2023-03-11T10:24:35;4.90;;;4.43;;
2123;SDS011;1068;52.460;13.528;2023-03-11T10:27:07;4.20;;;3.90;;
2123;SDS011;1068;52.460;13.528;2023-03-11T10:29:39;3.78;;;3.47;;
2123;SDS011;1068;52.460;13.528;2023-03-11T10:32:10;4.63;;;3.90;;
2123;SDS011;1068;52.460;13.528;2023-03-11T10:34:39;3.63;;;3.40;;
2123;SDS011;1068;52.460;13.528;2023-03-11T10:37:09;6.60;;;4.65;;
2123;SDS011;1068;52.460;13.528;2023-03-11T10:39:37;3.70;;;3.40;;
2123;SDS011;1068;52.460;13.528;2023-03-11T10:42:09;3.40;;;3.10;;
2123;SDS011;1068;52.460;13.528;2023-03-11T10:44:38;3.95;;;3.65;;
2123;SDS011;1068;52.460;13.528;2023-03-11T10:47:09;5.25;;;3.53;;
2123;SDS011;1068;52.460;13.528;2023-03-11T10:49:38;4.60;;;4.20;;
2123;SDS011;1068;52.460;13.528;2023-03-11T10:52:05;3.97;;;3.70;;
2123;SDS011;1068;52.460;13.528;2023-03-11T10:54:33;3.03;;;2.80;;
2123;SDS011;1068;52.460;13.528;2023-03-11T10:57:02;3.35;;;3.15;;
2123;SDS011;1068;52.460;13.528;2023-03-11T10:59:31;4.85;;;3.50;;
2123;SDS011;1068;52.460;13.528;2023-03-11T11:01:59;4.15;;;3.80;;
2123;SDS011;1068;52.460;13.528;2023-03-11T11:04:28;4.30;;;4.00;;
2123;SDS011;1068;52.460;13.528;2023-03-11T11:06:56;4.70;;;4.30;;
2123;SDS011;1068;52.460;13.528;2023-03-11T11:09:24;4.65;;;4.25;;
2123;SDS011;1068;52.460;13.528;2023-03-11T11:12:02;4.70;;;4.20;;
2123;SDS011;1068;52.460;13.528;2023-03-11T11:14:44;5.10;;;4.70;;
2123;SDS011;1068;52.460;13.528;2023-03-11T11:17:15;4.65;;;4.35;;
2123;SDS011;1068;52.460;13.528;2023-03-11T11:19:43;4.15;;;3.85;;
2123;SDS011;1068;52.460;13.528;2023-03-11T11:22:10;4.65;;;4.22;;
2123;SDS011;1068;52.460;13.528;2023-03-11T11:24:42;6.03;;;4.97;;
2123;SDS011;1068;52.460;13.528;2023-03-11T11:27:14;5.82;;;5.32;;
2123;SDS011;1068;52.460;13.528;2023-03-11T11:29:41;5.75;;;4.43;;
2123;SDS011;1068;52.460;13.528;2023-03-11T11:32:14;5.47;;;4.93;;
2123;SDS011;1068;52.460;13.528;2023-03-11T11:34:42;5.10;;;4.70;;
2123;SDS011;1068;52.460;13.528;2023-03-11T11:37:18;4.22;;;3.92;;
2123;SDS011;1068;52.460;13.528;2023-03-11T11:39:48;5.00;;;4.63;;
2123;SDS011;1068;52.460;13.528;2023-03-11T11:42:16;5.00;;;4.53;;
2123;SDS011;1068;52.460;13.528;2023-03-11T11:44:44;4.57;;;4.15;;
2123;SDS011;1068;52.460;13.528;2023-03-11T11:47:16;5.30;;;4.80;;
2123;SDS011;1068;52.460;13.528;2023-03-11T11:49:47;5.20;;;4.70;;
2123;SDS011;1068;52.460;13.528;2023-03-11T11:52:16;4.93;;;4.53;;
2123;SDS011;1068;52.460;13.528;2023-03-11T11:54:46;4.90;;;4.55;;
2123;SDS011;1068;52.460;13.528;2023-03-11T11:57:16;5.97;;;5.30;;
2123;SDS011;1068;52.460;13.528;2023-03-11T11:59:45;5.43;;;4.93;;
2123;SDS011;1068;52.460;13.528;2023-03-11T12:02:18;5.82;;;5.30;;
2123;SDS011;1068;52.460;13.528;2023-03-11T12:04:52;5.40;;;5.00;;
2123;SDS011;1068;52.460;13.528;2023-03-11T12:07:28;5.70;;;5.20;;
2123;SDS011;1068;52.460;13.528;2023-03-11T12:10:00;7.05;;;6.35;;
2123;SDS011;1068;52.460;13.528;2023-03-11T12:12:28;6.43;;;5.93;;
2123;SDS011;1068;52.460;13.528;2023-03-11T12:15:00;5.95;;;5.35;;
2123;SDS011;1068;52.460;13.528;2023-03-11T12:17:33;7.05;;;6.38;;
2123;SDS011;1068;52.460;13.528;2023-03-11T12:20:02;6.20;;;5.70;;
2123;SDS011;1068;52.460;13.528;2023-03-11T12:25:22;7.28;;;6.30;;
2123;SDS011;1068;52.460;13.528;2023-03-11T12:27:52;6.70;;;6.03;;
2123;SDS011;1068;52.460;13.528;2023-03-11T12:30:24;6.38;;;5.82;;
2123;SDS011;1068;52.460;13.528;2023-03-11T12:32:54;6.03;;;5.50;;
2123;SDS011;1068;52.460;13.528;2023-03-11T12:35:23;7.60;;;6.78;;
2123;SDS011;1068;52.460;13.528;2023-03-11T12:37:55;7.07;;;6.37;;
2123;SDS011;1068;52.460;13.528;2023-03-11T12:43:23;7.30;;;6.60;;
2123;SDS011;1068;52.460;13.528;2023-03-11T12:45:53;5.87;;;5.37;;
2123;SDS011;1068;52.460;13.528;2023-03-11T12:48:28;6.95;;;6.35;;
2123;SDS011;1068;52.460;13.528;2023-03-11T12:50:57;7.18;;;6.35;;
2123;SDS011;1068;52.460;13.528;2023-03-11T12:53:40;6.28;;;5.45;;
2123;SDS011;1068;52.460;13.528;2023-03-11T12:56:08;4.72;;;4.40;;
2123;SDS011;1068;52.460;13.528;2023-03-11T12:58:44;5.90;;;5.40;;
2123;SDS011;1068;52.460;13.528;2023-03-11T13:01:18;6.47;;;5.63;;
2123;SDS011;1068;52.460;13.528;2023-03-11T13:06:41;8.63;;;6.57;;
2123;SDS011;1068;52.460;13.528;2023-03-11T13:09:12;6.22;;;5.72;;
2123;SDS011;1068;52.460;13.528;2023-03-11T13:11:41;7.35;;;6.70;;
2123;SDS011;1068;52.460;13.528;2023-03-11T13:14:09;8.07;;;6.65;;
2123;SDS011;1068;52.460;13.528;2023-03-11T13:16:44;7.28;;;6.55;;
2123;SDS011;1068;52.460;13.528;2023-03-11T13:21:58;7.35;;;6.75;;
2123;SDS011;1068;52.460;13.528;2023-03-11T13:24:40;7.60;;;6.32;;
2123;SDS011;1068;52.460;13.528;2023-03-11T13:27:16;10.00;;;5.93;;
2123;SDS011;1068;52.460;13.528;2023-03-11T13:29:52;5.45;;;4.95;;
2123;SDS011;1068;52.460;13.528;2023-03-11T13:32:40;6.20;;;5.18;;
2123;SDS011;1068;52.460;13.528;2023-03-11T13:35:15;6.20;;;5.70;;
2123;SDS011;1068;52.460;13.528;2023-03-11T13:37:50;8.20;;;5.83;;
2123;SDS011;1068;52.460;13.528;2023-03-11T13:40:27;5.75;;;5.25;;
2123;SDS011;1068;52.460;13.528;2023-03-11T13:42:59;6.70;;;6.05;;
2123;SDS011;1068;52.460;13.528;2023-03-11T13:45:28;6.28;;;4.90;;
2123;SDS011;1068;52.460;13.528;2023-03-11T13:47:57;5.53;;;5.03;;
2123;SDS011;1068;52.460;13.528;2023-03-11T13:50:25;5.30;;;4.85;;
2123;SDS011;1068;52.460;13.528;2023-03-11T13:52:55;6.40;;;5.22;;
2123;SDS011;1068;52.460;13.528;2023-03-11T13:55:25;5.85;;;5.28;;
2123;SDS011;1068;52.460;13.528;2023-03-11T13:57:54;5.97;;;4.85;;
2123;SDS011;1068;52.460;13.528;2023-03-11T14:00:22;6.85;;;5.70;;
2123;SDS011;1068;52.460;13.528;2023-03-11T14:02:52;5.50;;;5.10;;
2123;SDS011;1068;52.460;13.528;2023-03-11T14:05:21;5.50;;;5.00;;
2123;SDS011;1068;52.460;13.528;2023-03-11T14:07:49;6.13;;;5.53;;
2123;SDS011;1068;52.460;13.528;2023-03-11T14:10:19;7.82;;;5.53;;
2123;SDS011;1068;52.460;13.528;2023-03-11T14:12:46;5.95;;;5.32;;
2123;SDS011;1068;52.460;13.528;2023-03-11T14:15:15;5.70;;;5.07;;
2123;SDS011;1068;52.460;13.528;2023-03-11T14:17:43;6.85;;;4.93;;
2123;SDS011;1068;52.460;13.528;2023-03-11T14:20:11;4.82;;;4.45;;
2123;SDS011;1068;52.460;13.528;2023-03-11T14:22:42;5.53;;;5.03;;
2123;SDS011;1068;52.460;13.528;2023-03-11T14:25:13;5.07;;;4.57;;
2123;SDS011;1068;52.460;13.528;2023-03-11T14:27:45;5.53;;;4.65;;
2123;SDS011;1068;52.460;13.528;2023-03-11T14:30:17;4.28;;;3.95;;
2123;SDS011;1068;52.460;13.528;2023-03-11T14:32:54;3.97;;;3.58;;
2123;SDS011;1068;52.460;13.528;2023-03-11T14:35:21;4.27;;;3.90;;
2123;SDS011;1068;52.460;13.528;2023-03-11T14:37:48;5.20;;;4.70;;
2123;SDS011;1068;52.460;13.528;2023-03-11T14:40:21;4.37;;;4.00;;
2123;SDS011;1068;52.460;13.528;2023-03-11T14:42:50;4.20;;;3.90;;
2123;SDS011;1068;52.460;13.528;2023-03-11T14:45:19;10.00;;;4.25;;
2123;SDS011;1068;52.460;13.528;2023-03-11T14:47:48;4.20;;;3.80;;
2123;SDS011;1068;52.460;13.528;2023-03-11T14:50:18;3.80;;;3.50;;
2123;SDS011;1068;52.460;13.528;2023-03-11T14:52:46;4.00;;;3.70;;
2123;SDS011;1068;52.460;13.528;2023-03-11T14:55:16;4.50;;;3.60;;
2123;SDS011;1068;52.460;13.528;2023-03-11T14:57:46;3.40;;;3.17;;
2123;SDS011;1068;52.460;13.528;2023-03-11T15:00:17;4.70;;;3.63;;
2123;SDS011;1068;52.460;13.528;2023-03-11T15:02:50;4.43;;;4.00;;
2123;SDS011;1068;52.460;13.528;2023-03-11T15:05:20;3.80;;;3.50;;
2123;SDS011;1068;52.460;13.528;2023-03-11T15:07:48;4.22;;;3.83;;
2123;SDS011;1068;52.460;13.528;2023-03-11T15:10:17;4.20;;;3.80;;
2123;SDS011;1068;52.460;13.528;2023-03-11T15:12:44;5.20;;;4.43;;
2123;SDS011;1068;52.460;13.528;2023-03-11T15:15:22;4.13;;;3.72;;
2123;SDS011;1068;52.460;13.528;2023-03-11T15:17:52;4.72;;;4.32;;
2123;SDS011;1068;52.460;13.528;2023-03-11T15:20:23;3.63;;;3.33;;